createdAt,value
2022-11-07T00:02:13.644Z,53.79
2022-11-07T00:04:42.894Z,53.63
2022-11-07T00:07:11.693Z,53.57
2022-11-07T00:09:40.174Z,53.65
2022-11-07T00:12:08.974Z,53.11
2022-11-07T00:14:37.452Z,53.27
2022-11-07T00:17:05.692Z,53.45
2022-11-07T00:19:34.093Z,53.61
2022-11-07T00:22:02.252Z,53.50
2022-11-07T00:24:30.443Z,52.97
2022-11-07T00:26:58.334Z,52.16
2022-11-07T00:29:28.013Z,52.31
2022-11-07T00:31:55.913Z,52.38
2022-11-07T00:34:24.333Z,52.83
2022-11-07T00:36:52.492Z,52.63
2022-11-07T00:39:20.961Z,52.98
2022-11-07T00:41:50.136Z,53.05
2022-11-07T00:44:18.576Z,52.79
2022-11-07T00:46:46.592Z,53.21
2022-11-07T00:49:14.882Z,52.93
2022-11-07T00:51:42.957Z,53.61
2022-11-07T00:54:11.532Z,53.49
2022-11-07T00:56:39.692Z,53.27
2022-11-07T00:59:08.173Z,53.18
2022-11-07T01:01:36.092Z,53.66
2022-11-07T01:04:24.962Z,53.73
2022-11-07T01:06:53.133Z,54.12
2022-11-07T01:09:22.032Z,54.25
2022-11-07T01:11:50.994Z,54.40
2022-11-07T01:14:22.403Z,54.08
2022-11-07T01:16:51.507Z,54.34
2022-11-07T01:19:20.292Z,54.63
2022-11-07T01:21:49.091Z,54.26
2022-11-07T01:24:19.127Z,54.13
2022-11-07T01:26:49.924Z,54.10
2022-11-07T01:29:19.938Z,54.30
2022-11-07T01:31:48.733Z,55.32
2022-11-07T01:34:18.246Z,55.47
2022-11-07T01:36:47.328Z,55.57
2022-11-07T01:39:15.530Z,55.84
2022-11-07T01:41:43.611Z,55.92
2022-11-07T01:44:12.092Z,56.25
2022-11-07T01:46:43.767Z,56.00
2022-11-07T01:49:37.249Z,55.86
2022-11-07T01:52:26.488Z,56.16
2022-11-07T01:55:10.681Z,57.11
2022-11-07T01:57:48.162Z,57.75
2022-11-07T02:00:20.803Z,57.97
2022-11-07T02:02:55.825Z,57.56
2022-11-07T02:05:31.533Z,58.37
2022-11-07T02:08:03.529Z,58.83
2022-11-07T02:10:34.898Z,58.88
2022-11-07T02:13:04.014Z,58.68
2022-11-07T02:15:35.379Z,58.94
2022-11-07T02:18:04.172Z,57.95
2022-11-07T02:20:32.965Z,58.89
2022-11-07T02:23:07.264Z,59.73
2022-11-07T02:25:36.974Z,59.40
2022-11-07T02:28:09.282Z,60.03
2022-11-07T02:30:39.415Z,60.46
2022-11-07T02:33:22.288Z,60.12
2022-11-07T02:35:52.313Z,60.38
2022-11-07T02:38:33.123Z,60.38
2022-11-07T02:41:10.409Z,60.97
2022-11-07T02:43:43.394Z,61.00
2022-11-07T02:46:13.755Z,61.19
2022-11-07T02:48:48.785Z,60.41
2022-11-07T02:51:17.443Z,60.27
2022-11-07T02:53:46.702Z,60.82
2022-11-07T02:56:15.682Z,61.19
2022-11-07T02:58:43.685Z,61.69
2022-11-07T03:01:12.721Z,61.34
2022-11-07T03:03:46.565Z,60.78
2022-11-07T03:06:18.384Z,59.55
2022-11-07T03:08:46.413Z,60.56
2022-11-07T03:11:14.837Z,60.81
2022-11-07T03:13:42.862Z,60.27
2022-11-07T03:16:11.692Z,60.99
2022-11-07T03:18:40.063Z,61.50
2022-11-07T03:21:08.293Z,62.35
2022-11-07T03:23:37.095Z,61.95
2022-11-07T03:26:05.916Z,62.45
2022-11-07T03:28:34.383Z,62.70
2022-11-07T03:31:04.720Z,62.43
2022-11-07T03:33:32.943Z,62.46
2022-11-07T03:36:01.284Z,62.71
2022-11-07T03:38:29.453Z,62.97
2022-11-07T03:40:57.607Z,62.08
2022-11-07T03:43:25.624Z,62.97
2022-11-07T03:45:53.881Z,63.03
2022-11-07T03:48:21.773Z,63.57
2022-11-07T03:50:49.949Z,63.76
2022-11-07T03:53:23.840Z,63.60
2022-11-07T03:55:55.974Z,63.08
2022-11-07T03:58:25.923Z,63.47
2022-11-07T04:00:54.215Z,64.12
2022-11-07T04:03:22.213Z,64.45
2022-11-07T04:05:50.504Z,64.23
2022-11-07T04:08:18.894Z,64.35
2022-11-07T04:10:47.123Z,64.30
2022-11-07T04:13:33.879Z,63.63
2022-11-07T04:16:21.134Z,63.69
2022-11-07T04:18:49.297Z,64.19
2022-11-07T04:21:17.454Z,64.16
2022-11-07T04:23:45.396Z,64.94
2022-11-07T04:26:32.326Z,65.74
2022-11-07T04:29:00.194Z,67.28
2022-11-07T04:31:28.346Z,66.29
2022-11-07T04:33:56.355Z,65.32
2022-11-07T04:36:24.646Z,65.10
2022-11-07T04:38:52.523Z,66.05
2022-11-07T04:41:25.294Z,66.24
2022-11-07T04:43:53.292Z,65.88
2022-11-07T04:46:23.535Z,65.89
2022-11-07T04:48:51.524Z,65.55
2022-11-07T04:51:22.413Z,65.98
2022-11-07T04:53:50.418Z,66.33
2022-11-07T04:56:18.574Z,66.40
2022-11-07T04:58:46.564Z,65.75
2022-11-07T05:01:14.743Z,65.96
2022-11-07T05:03:43.064Z,66.59
2022-11-07T05:06:14.894Z,66.62
2022-11-07T05:08:43.054Z,65.90
2022-11-07T05:11:11.363Z,64.98
2022-11-07T05:13:39.303Z,65.60
2022-11-07T05:16:15.269Z,65.47
2022-11-07T05:18:43.798Z,65.52
2022-11-07T05:21:12.368Z,65.18
2022-11-07T05:23:40.517Z,65.20
2022-11-07T05:26:10.218Z,65.02
2022-11-07T05:28:39.906Z,65.81
2022-11-07T05:31:12.287Z,66.70
2022-11-07T05:33:41.099Z,66.35
2022-11-07T05:36:15.960Z,66.25
2022-11-07T05:38:47.712Z,65.90
2022-11-07T05:41:17.808Z,65.87
2022-11-07T05:43:46.457Z,66.15
2022-11-07T05:46:15.638Z,66.21
2022-11-07T05:48:43.561Z,66.46
2022-11-07T05:51:12.042Z,65.51
2022-11-07T05:53:40.273Z,65.59
2022-11-07T05:56:09.037Z,65.45
2022-11-07T05:58:37.800Z,65.60
2022-11-07T06:01:07.242Z,65.71
2022-11-07T06:03:35.414Z,64.60
2022-11-07T06:06:04.222Z,65.06
2022-11-07T06:08:32.270Z,64.88
2022-11-07T06:11:05.660Z,65.77
2022-11-07T06:13:33.814Z,65.04
2022-11-07T06:16:02.079Z,64.77
2022-11-07T06:18:30.203Z,65.00
2022-11-07T06:21:02.122Z,64.44
2022-11-07T06:23:30.280Z,64.55
2022-11-07T06:25:58.772Z,64.88
2022-11-07T06:28:26.920Z,64.42
2022-11-07T06:31:00.811Z,64.18
2022-11-07T06:33:30.603Z,65.05
2022-11-07T06:36:11.786Z,64.21
2022-11-07T06:38:41.015Z,64.44
2022-11-07T06:41:13.422Z,64.02
2022-11-07T06:43:41.801Z,63.88
2022-11-07T06:46:14.542Z,62.88
2022-11-07T06:48:42.613Z,63.29
2022-11-07T06:51:12.112Z,62.09
2022-11-07T06:53:40.845Z,62.94
2022-11-07T06:56:16.411Z,61.83
2022-11-07T06:58:44.632Z,61.10
2022-11-07T07:01:15.630Z,61.80
2022-11-07T07:03:44.683Z,60.57
2022-11-07T07:06:16.445Z,60.00
2022-11-07T07:08:46.133Z,59.71
2022-11-07T07:11:16.293Z,59.83
2022-11-07T07:13:44.363Z,59.39
2022-11-07T07:16:13.480Z,58.60
2022-11-07T07:18:41.762Z,57.99
2022-11-07T07:21:13.012Z,57.81
2022-11-07T07:23:41.807Z,56.32
2022-11-07T07:26:16.372Z,55.67
2022-11-07T07:28:44.691Z,54.92
2022-11-07T07:31:16.902Z,54.89
2022-11-07T07:33:46.993Z,54.71
2022-11-07T07:36:20.474Z,53.81
2022-11-07T07:38:49.623Z,53.72
2022-11-07T07:41:19.091Z,53.41
2022-11-07T07:43:47.342Z,52.31
2022-11-07T07:46:21.801Z,52.06
2022-11-07T07:48:50.291Z,51.81
2022-11-07T07:51:18.477Z,51.29
2022-11-07T07:53:46.589Z,50.65
2022-11-07T07:56:15.717Z,50.77
2022-11-07T07:58:43.961Z,51.35
2022-11-07T08:01:12.488Z,50.49
2022-11-07T08:04:00.227Z,50.16
2022-11-07T08:06:29.184Z,49.85
2022-11-07T08:08:57.372Z,49.62
2022-11-07T08:11:25.810Z,50.53
2022-11-07T08:13:59.757Z,49.73
2022-11-07T08:16:30.160Z,49.00
2022-11-07T08:18:58.287Z,48.34
2022-11-07T08:21:27.013Z,47.93
2022-11-07T08:23:55.240Z,47.77
2022-11-07T08:26:23.727Z,47.59
2022-11-07T08:28:54.118Z,46.35
2022-11-07T08:31:22.922Z,47.31
2022-11-07T08:33:51.054Z,46.28
2022-11-07T08:36:19.560Z,45.76
2022-11-07T08:38:47.793Z,45.79
2022-11-07T08:41:21.766Z,44.71
2022-11-07T08:43:50.511Z,45.52
2022-11-07T08:46:18.920Z,45.19
2022-11-07T08:48:47.082Z,44.62
2022-11-07T08:51:15.571Z,44.06
2022-11-07T08:53:44.052Z,44.20
2022-11-07T08:56:12.772Z,43.90
2022-11-07T08:58:41.001Z,41.41
2022-11-07T09:01:10.504Z,40.14
2022-11-07T09:03:50.714Z,39.91
2022-11-07T09:06:23.469Z,39.45
2022-11-07T09:08:51.631Z,38.67
2022-11-07T09:11:20.360Z,39.09
2022-11-07T09:13:48.520Z,38.15
2022-11-07T09:16:19.897Z,38.68
2022-11-07T09:18:49.930Z,38.11
2022-11-07T09:21:22.388Z,38.53
2022-11-07T09:23:52.583Z,37.79
2022-11-07T09:26:21.148Z,38.20
2022-11-07T09:28:52.995Z,37.86
2022-11-07T09:31:22.633Z,36.50
2022-11-07T09:33:50.481Z,36.21
2022-11-07T09:36:18.639Z,35.62
2022-11-07T09:38:46.506Z,35.41
2022-11-07T09:41:26.807Z,35.34
2022-11-07T09:44:04.951Z,35.70
2022-11-07T09:46:44.846Z,35.23
2022-11-07T09:49:44.344Z,35.05
2022-11-07T09:52:51.849Z,35.62
2022-11-07T09:55:27.037Z,35.78
2022-11-07T09:58:01.238Z,35.57
2022-11-07T10:00:33.278Z,35.01
2022-11-07T10:03:03.758Z,34.31
2022-11-07T10:05:55.527Z,35.18
2022-11-07T10:08:45.527Z,36.00
2022-11-07T10:11:37.606Z,36.46
2022-11-07T10:14:25.287Z,36.33
2022-11-07T10:16:55.648Z,36.55
2022-11-07T10:19:29.917Z,35.90
2022-11-07T10:22:10.256Z,35.38
2022-11-07T10:25:17.128Z,33.80
2022-11-07T10:27:59.006Z,33.97
2022-11-07T10:30:27.207Z,34.09
2022-11-07T10:33:01.127Z,35.54
2022-11-07T10:35:32.487Z,34.97
2022-11-07T10:38:22.418Z,34.68
2022-11-07T10:40:51.922Z,34.17
2022-11-07T10:43:30.159Z,33.40
2022-11-07T10:46:00.007Z,34.51
2022-11-07T10:48:29.847Z,33.04
2022-11-07T10:50:58.566Z,33.23
2022-11-07T10:53:27.767Z,32.44
2022-11-07T10:55:56.501Z,33.52
2022-11-07T10:58:24.397Z,34.39
2022-11-07T11:01:03.191Z,32.52
2022-11-07T11:03:44.460Z,31.64
2022-11-07T11:06:24.020Z,31.99
2022-11-07T11:08:52.925Z,31.48
2022-11-07T11:11:33.153Z,31.75
2022-11-07T11:14:16.742Z,30.37
2022-11-07T11:16:45.027Z,30.06
2022-11-07T11:19:31.220Z,29.85
2022-11-07T11:22:00.342Z,29.08
2022-11-07T11:24:33.378Z,30.10
2022-11-07T11:27:12.657Z,29.19
2022-11-07T11:29:56.388Z,29.12
2022-11-07T11:32:32.007Z,32.64
2022-11-07T11:35:09.439Z,33.18
2022-11-07T11:37:43.030Z,32.77
2022-11-07T11:40:19.228Z,34.25
2022-11-07T11:43:17.559Z,34.81
2022-11-07T11:46:07.111Z,32.40
2022-11-07T11:48:44.491Z,30.67
2022-11-07T11:51:36.978Z,31.27
2022-11-07T11:54:10.256Z,31.20
2022-11-07T11:56:53.447Z,30.02
2022-11-07T11:59:22.135Z,31.08
2022-11-07T12:02:15.192Z,32.82
2022-11-07T12:05:10.858Z,31.26
2022-11-07T12:07:55.847Z,29.72
2022-11-07T12:10:29.775Z,29.57
2022-11-07T12:13:22.251Z,28.95
2022-11-07T12:16:15.642Z,29.36
2022-11-07T12:19:04.217Z,28.56
2022-11-07T12:21:36.648Z,28.68
2022-11-07T12:24:36.829Z,27.79
2022-11-07T12:27:20.279Z,26.58
2022-11-07T12:30:21.459Z,29.24
2022-11-07T12:33:28.070Z,29.96
2022-11-07T12:36:25.308Z,30.73
2022-11-07T12:38:53.406Z,30.28
2022-11-07T12:41:52.929Z,29.78
2022-11-07T12:44:49.367Z,28.10
2022-11-07T12:47:46.906Z,28.69
2022-11-07T12:50:43.004Z,27.48
2022-11-07T12:54:00.660Z,26.97
2022-11-07T12:56:35.488Z,28.00
2022-11-07T12:59:10.728Z,29.83
2022-11-07T13:01:48.967Z,29.02
2022-11-07T13:04:24.868Z,28.89
2022-11-07T13:07:06.258Z,28.94
2022-11-07T13:09:51.213Z,28.56
2022-11-07T13:12:30.412Z,29.21
2022-11-07T13:14:58.905Z,29.64
2022-11-07T13:17:38.318Z,30.59
2022-11-07T13:20:26.535Z,30.56
2022-11-07T13:23:02.423Z,29.73
2022-11-07T13:25:32.542Z,28.89
2022-11-07T13:28:04.811Z,27.45
2022-11-07T13:30:38.414Z,27.48
2022-11-07T13:33:09.764Z,26.89
2022-11-07T13:35:39.210Z,27.46
2022-11-07T13:38:24.333Z,28.03
2022-11-07T13:40:59.212Z,30.28
2022-11-07T13:43:39.581Z,29.66
2022-11-07T13:46:17.281Z,28.44
2022-11-07T13:48:56.962Z,28.99
2022-11-07T13:51:51.361Z,29.35
2022-11-07T13:54:30.752Z,28.83
2022-11-07T13:57:09.453Z,29.46
2022-11-07T13:59:53.025Z,27.42
2022-11-07T14:02:27.976Z,27.31
2022-11-07T14:05:19.263Z,27.20
2022-11-07T14:07:51.503Z,27.00
2022-11-07T14:10:47.378Z,26.29
2022-11-07T14:13:30.482Z,25.53
2022-11-07T14:16:35.804Z,25.16
2022-11-07T14:19:14.524Z,26.95
2022-11-07T14:21:46.204Z,26.98
2022-11-07T14:24:27.804Z,28.17
2022-11-07T14:27:02.063Z,27.57
2022-11-07T14:29:30.829Z,26.37
2022-11-07T14:32:04.744Z,24.86
2022-11-07T14:34:36.912Z,23.49
2022-11-07T14:37:16.829Z,21.79
2022-11-07T14:39:54.512Z,20.92
2022-11-07T14:42:25.749Z,22.42
2022-11-07T14:44:57.891Z,24.05
2022-11-07T14:47:34.693Z,25.89
2022-11-07T14:50:04.470Z,27.08
2022-11-07T14:53:11.640Z,28.68
2022-11-07T14:55:47.518Z,29.24
2022-11-07T14:58:18.973Z,29.64
2022-11-07T15:00:56.122Z,27.82
2022-11-07T15:03:32.441Z,29.17
2022-11-07T15:06:01.921Z,29.74
2022-11-07T15:08:37.784Z,30.97
2022-11-07T15:11:15.162Z,27.79
2022-11-07T15:13:48.183Z,26.33
2022-11-07T15:16:23.078Z,26.98
2022-11-07T15:19:01.135Z,27.99
2022-11-07T15:21:51.362Z,28.94
2022-11-07T15:24:43.853Z,31.65
2022-11-07T15:27:14.656Z,32.34
2022-11-07T15:29:57.772Z,33.84
2022-11-07T15:32:32.651Z,34.84
2022-11-07T15:35:30.210Z,34.88
2022-11-07T15:38:15.771Z,35.96
2022-11-07T15:40:44.495Z,37.14
2022-11-07T15:43:12.655Z,37.85
2022-11-07T15:45:42.418Z,38.66
2022-11-07T15:48:17.859Z,39.41
2022-11-07T15:50:49.043Z,39.46
2022-11-07T15:53:26.093Z,39.73
2022-11-07T15:55:57.461Z,39.22
2022-11-07T15:58:28.492Z,39.59
2022-11-07T16:00:59.216Z,39.61
2022-11-07T16:03:28.431Z,40.89
2022-11-07T16:06:02.251Z,41.38
2022-11-07T16:08:31.052Z,42.00
2022-11-07T16:11:01.769Z,40.97
2022-11-07T16:13:30.245Z,40.80
2022-11-07T16:16:01.274Z,40.41
2022-11-07T16:18:37.142Z,40.40
2022-11-07T16:21:05.733Z,40.81
2022-11-07T16:23:33.772Z,41.44
2022-11-07T16:26:02.893Z,41.83
2022-11-07T16:28:35.532Z,42.95
2022-11-07T16:31:04.653Z,43.14
2022-11-07T16:33:33.463Z,43.14
2022-11-07T16:36:08.012Z,43.80
2022-11-07T16:38:36.812Z,44.78
2022-11-07T16:41:05.325Z,44.75
2022-11-07T16:43:35.461Z,44.77
2022-11-07T16:46:05.762Z,45.14
2022-11-07T16:48:38.093Z,45.22
2022-11-07T16:51:06.894Z,45.53
2022-11-07T16:53:35.363Z,45.69
2022-11-07T16:56:04.481Z,45.72
2022-11-07T16:58:34.885Z,45.68
2022-11-07T17:01:06.382Z,45.85
2022-11-07T17:03:34.754Z,46.22
2022-11-07T17:06:04.503Z,46.81
2022-11-07T17:08:41.600Z,47.08
2022-11-07T17:11:14.242Z,47.62
2022-11-07T17:13:42.111Z,47.58
2022-11-07T17:16:35.211Z,48.52
2022-11-07T17:19:05.293Z,48.86
2022-11-07T17:21:37.050Z,49.18
2022-11-07T17:24:05.770Z,48.98
2022-11-07T17:26:38.081Z,49.79
2022-11-07T17:29:09.121Z,50.49
2022-11-07T17:31:37.505Z,50.58
2022-11-07T17:47:03.201Z,51.36
2022-11-07T17:49:32.352Z,51.35
2022-11-07T17:52:01.249Z,51.01
2022-11-07T17:54:29.934Z,52.00
2022-11-07T17:56:58.289Z,52.31
2022-11-07T17:59:27.010Z,52.89
2022-11-07T18:01:55.198Z,53.15
2022-11-07T18:04:24.609Z,52.81
2022-11-07T18:06:52.829Z,52.98
2022-11-07T18:09:21.333Z,53.17
2022-11-07T18:11:49.702Z,53.75
2022-11-07T18:14:19.069Z,54.00
2022-11-07T18:16:47.154Z,53.41
2022-11-07T18:19:17.695Z,53.88
2022-11-07T18:21:46.335Z,54.37
2022-11-07T18:24:16.140Z,54.56
2022-11-07T18:26:44.206Z,54.95
2022-11-07T18:29:13.836Z,54.92
2022-11-07T18:31:41.854Z,55.68
2022-11-07T18:34:12.230Z,55.53
2022-11-07T18:36:43.016Z,55.58
2022-11-07T18:39:17.775Z,55.40
2022-11-07T18:41:46.231Z,55.76
2022-11-07T18:44:15.110Z,56.09
2022-11-07T18:46:43.885Z,56.45
2022-11-07T18:49:14.514Z,56.48
2022-11-07T18:51:44.190Z,56.36
2022-11-07T18:54:14.381Z,56.51
2022-11-07T18:56:43.645Z,56.01
2022-11-07T18:59:12.149Z,56.35
2022-11-07T19:01:40.631Z,56.15
2022-11-07T19:04:11.987Z,56.33
2022-11-07T19:06:56.174Z,56.30
2022-11-07T19:09:30.716Z,55.94
2022-11-07T19:12:01.580Z,56.22
2022-11-07T19:14:31.446Z,56.31
2022-11-07T19:16:59.796Z,56.84
2022-11-07T19:19:30.088Z,56.67
2022-11-07T19:21:58.316Z,56.56
2022-11-07T19:24:26.796Z,56.72
2022-11-07T19:26:55.117Z,56.47
2022-11-07T19:29:23.763Z,57.07
2022-11-07T19:31:52.306Z,56.88
2022-11-07T19:34:21.606Z,56.86
2022-11-07T19:36:49.767Z,57.75
2022-11-07T19:39:18.355Z,57.16
2022-11-07T19:41:46.567Z,57.44
2022-11-07T19:44:16.067Z,57.71
2022-11-07T19:46:45.095Z,57.11
2022-11-07T19:49:13.647Z,57.11
2022-11-07T19:51:41.795Z,57.35
2022-11-07T19:54:10.226Z,57.05
2022-11-07T19:56:39.869Z,57.28
2022-11-07T19:59:08.396Z,57.91
2022-11-07T20:01:37.110Z,58.19
2022-11-07T20:04:05.860Z,57.46
2022-11-07T20:06:37.283Z,57.83
2022-11-07T20:09:08.564Z,58.31
2022-11-07T20:11:38.340Z,58.56
2022-11-07T20:14:07.105Z,58.82
2022-11-07T20:16:39.106Z,58.93
2022-11-07T20:19:07.856Z,58.77
2022-11-07T20:21:35.956Z,58.88
2022-11-07T20:24:05.899Z,59.41
2022-11-07T20:26:34.047Z,58.74
2022-11-07T20:29:03.252Z,59.08
2022-11-07T20:31:34.573Z,59.44
2022-11-07T20:34:06.469Z,58.84
2022-11-07T20:36:35.678Z,59.17
2022-11-07T20:39:05.527Z,58.83
2022-11-07T20:41:36.098Z,58.57
2022-11-07T20:44:07.437Z,58.19
2022-11-07T20:46:38.908Z,58.53
2022-11-07T20:49:09.549Z,58.27
2022-11-07T20:51:38.388Z,58.30
2022-11-07T20:54:07.578Z,57.85
2022-11-07T20:56:36.128Z,58.54
2022-11-07T20:59:06.629Z,59.09
2022-11-07T21:01:38.214Z,59.34
2022-11-07T21:04:18.567Z,59.82
2022-11-07T21:06:46.689Z,60.36
2022-11-07T21:09:15.290Z,60.51
2022-11-07T21:11:43.348Z,60.08
2022-11-07T21:14:11.900Z,60.26
2022-11-07T21:16:40.229Z,60.68
2022-11-07T21:19:09.851Z,60.44
2022-11-07T21:21:37.878Z,60.77
2022-11-07T21:24:06.652Z,59.84
2022-11-07T21:26:39.417Z,60.00
2022-11-07T21:29:09.618Z,60.22
2022-11-07T21:31:39.391Z,59.99
2022-11-07T21:34:11.282Z,59.53
2022-11-07T21:36:39.399Z,59.18
2022-11-07T21:39:08.070Z,59.60
2022-11-07T21:41:36.879Z,58.75
2022-11-07T21:44:05.578Z,58.09
2022-11-07T21:46:37.266Z,58.05
2022-11-07T21:49:06.606Z,57.84
2022-11-07T21:51:35.757Z,58.67
2022-11-07T21:54:06.228Z,57.93
2022-11-07T21:56:39.481Z,58.08
2022-11-07T21:59:12.369Z,58.67
2022-11-07T22:01:41.645Z,58.54
2022-11-07T22:04:13.692Z,57.93
2022-11-07T22:06:45.356Z,58.39
2022-11-07T22:09:17.900Z,59.07
2022-11-07T22:11:45.961Z,59.01
2022-11-07T22:14:17.168Z,59.10
2022-11-07T22:16:46.277Z,58.31
2022-11-07T22:19:16.938Z,58.20
2022-11-07T22:21:45.011Z,57.97
2022-11-07T22:24:13.327Z,57.85
2022-11-07T22:26:41.471Z,57.49
2022-11-07T22:29:09.991Z,57.75
2022-11-07T22:31:38.119Z,58.16
2022-11-07T22:34:06.520Z,58.72
2022-11-07T22:36:34.708Z,58.33
2022-11-07T22:39:04.727Z,58.66
2022-11-07T22:41:33.420Z,58.86
2022-11-07T22:44:17.832Z,59.49
2022-11-07T22:46:47.891Z,59.31
2022-11-07T22:49:15.968Z,58.58
2022-11-07T22:51:44.438Z,57.78
2022-11-07T22:54:14.297Z,58.06
2022-11-07T22:56:42.850Z,58.83
2022-11-07T22:59:11.838Z,59.33
2022-11-07T23:01:43.021Z,58.99
2022-11-07T23:04:15.568Z,59.47
2022-11-07T23:06:45.267Z,59.53
2022-11-07T23:09:15.658Z,59.54
2022-11-07T23:11:46.516Z,58.81
2022-11-07T23:14:19.728Z,59.07
2022-11-07T23:16:53.897Z,59.57
2022-11-07T23:19:25.267Z,60.31
2022-11-07T23:21:57.499Z,59.33
2022-11-07T23:24:25.748Z,59.84
2022-11-07T23:26:54.278Z,59.96
2022-11-07T23:29:24.779Z,60.06
2022-11-07T23:31:53.715Z,60.05
2022-11-07T23:34:22.933Z,59.95
2022-11-07T23:36:52.048Z,59.39
2022-11-07T23:39:22.612Z,60.04
2022-11-07T23:41:51.099Z,60.20
2022-11-07T23:44:19.198Z,59.94
2022-11-07T23:47:05.898Z,59.98
2022-11-07T23:49:52.598Z,59.75
2022-11-07T23:52:21.530Z,59.53
2022-11-07T23:55:09.790Z,58.79
2022-11-07T23:57:57.909Z,59.34
